sensor_id;sensor_type;location;lat;lon;timestamp;pressure;altitude;pressure_sealevel;temperature;humidity
36692;BME280;22678;52.052;4.242;2022-09-12T00:00:05;101718.59;;;19.03;69.79
36692;BME280;22678;52.052;4.242;2022-09-12T00:02:30;101709.09;;;18.94;70.05
36692;BME280;22678;52.052;4.242;2022-09-12T00:04:55;101708.28;;;18.92;69.70
36692;BME280;22678;52.052;4.242;2022-09-12T00:07:21;101709.28;;;18.88;69.85
36692;BME280;22678;52.052;4.242;2022-09-12T00:09:46;101701.38;;;18.83;70.04
36692;BME280;22678;52.052;4.242;2022-09-12T00:12:11;101707.44;;;18.90;69.96
36692;BME280;22678;52.052;4.242;2022-09-12T00:14:37;101701.44;;;18.82;70.11
36692;BME280;22678;52.052;4.242;2022-09-12T00:17:02;101690.03;;;18.77;70.18
36692;BME280;22678;52.052;4.242;2022-09-12T00:19:28;101715.56;;;18.84;70.13
36692;BME280;22678;52.052;4.242;2022-09-12T00:21:54;101716.47;;;18.83;70.21
36692;BME280;22678;52.052;4.242;2022-09-12T00:24:20;101711.25;;;18.80;70.20
36692;BME280;22678;52.052;4.242;2022-09-12T00:26:45;101695.53;;;18.70;70.32
36692;BME280;22678;52.052;4.242;2022-09-12T00:29:15;101709.59;;;18.76;70.35
36692;BME280;22678;52.052;4.242;2022-09-12T00:31:41;101695.53;;;18.70;70.45
36692;BME280;22678;52.052;4.242;2022-09-12T00:34:06;101705.28;;;18.71;70.57
36692;BME280;22678;52.052;4.242;2022-09-12T00:36:31;101703.44;;;18.73;70.77
36692;BME280;22678;52.052;4.242;2022-09-12T00:38:57;101699.09;;;18.69;70.65
36692;BME280;22678;52.052;4.242;2022-09-12T00:41:28;101692.13;;;18.65;70.94
36692;BME280;22678;52.052;4.242;2022-09-12T00:43:57;101688.53;;;18.66;70.79
36692;BME280;22678;52.052;4.242;2022-09-12T00:46:32;101688.53;;;18.66;70.83
36692;BME280;22678;52.052;4.242;2022-09-12T00:49:03;101693.00;;;18.66;70.87
36692;BME280;22678;52.052;4.242;2022-09-12T00:51:32;101677.34;;;18.53;70.88
36692;BME280;22678;52.052;4.242;2022-09-12T00:54:02;101688.75;;;18.59;70.80
36692;BME280;22678;52.052;4.242;2022-09-12T00:56:29;101688.81;;;18.57;70.98
36692;BME280;22678;52.052;4.242;2022-09-12T00:59:02;101625.09;;;18.18;70.69
36692;BME280;22678;52.052;4.242;2022-09-12T01:01:29;101689.75;;;18.54;70.86
36692;BME280;22678;52.052;4.242;2022-09-12T01:03:54;101676.72;;;18.45;70.77
36692;BME280;22678;52.052;4.242;2022-09-12T01:06:25;101681.91;;;18.50;71.02
36692;BME280;22678;52.052;4.242;2022-09-12T01:08:51;101661.03;;;18.34;70.83
36692;BME280;22678;52.052;4.242;2022-09-12T01:11:20;101677.72;;;18.41;70.94
36692;BME280;22678;52.052;4.242;2022-09-12T01:13:46;101676.94;;;18.37;71.29
36692;BME280;22678;52.052;4.242;2022-09-12T01:16:12;101662.94;;;18.29;71.19
36692;BME280;22678;52.052;4.242;2022-09-12T01:21:47;101678.84;;;18.32;71.40
36692;BME280;22678;52.052;4.242;2022-09-12T01:24:29;101670.06;;;18.29;71.31
36692;BME280;22678;52.052;4.242;2022-09-12T01:35:08;101655.44;;;18.11;71.53
36692;BME280;22678;52.052;4.242;2022-09-12T01:38:30;101658.09;;;18.11;71.86
36692;BME280;22678;52.052;4.242;2022-09-12T01:46:10;101653.91;;;18.02;71.86
36692;BME280;22678;52.052;4.242;2022-09-12T01:48:41;101657.53;;;17.99;71.82
36692;BME280;22678;52.052;4.242;2022-09-12T01:51:34;101650.59;;;17.94;71.92
36692;BME280;22678;52.052;4.242;2022-09-12T01:54:07;101625.13;;;17.82;72.08
36692;BME280;22678;52.052;4.242;2022-09-12T01:56:35;101635.69;;;17.85;72.20
36692;BME280;22678;52.052;4.242;2022-09-12T02:01:52;101627.03;;;17.77;72.26
36692;BME280;22678;52.052;4.242;2022-09-12T02:04:50;101614.66;;;17.76;72.58
36692;BME280;22678;52.052;4.242;2022-09-12T02:07:26;101609.41;;;17.73;72.33
36692;BME280;22678;52.052;4.242;2022-09-12T02:09:59;101628.78;;;17.78;72.56
36692;BME280;22678;52.052;4.242;2022-09-12T02:12:34;101597.09;;;17.68;72.58
36692;BME280;22678;52.052;4.242;2022-09-12T02:15:06;101597.19;;;17.65;72.64
36692;BME280;22678;52.052;4.242;2022-09-12T02:17:37;101607.63;;;17.73;72.67
36692;BME280;22678;52.052;4.242;2022-09-12T02:20:09;101611.22;;;17.71;72.89
36692;BME280;22678;52.052;4.242;2022-09-12T02:22:36;101610.41;;;17.68;72.95
36692;BME280;22678;52.052;4.242;2022-09-12T02:25:05;101607.91;;;17.62;72.88
36692;BME280;22678;52.052;4.242;2022-09-12T02:30:03;101599.25;;;17.54;73.13
36692;BME280;22678;52.052;4.242;2022-09-12T02:32:31;101607.97;;;17.59;73.24
36692;BME280;22678;52.052;4.242;2022-09-12T02:35:10;101595.75;;;17.52;73.45
36692;BME280;22678;52.052;4.242;2022-09-12T02:37:59;101602.63;;;17.59;73.61
36692;BME280;22678;52.052;4.242;2022-09-12T02:40:27;101600.91;;;17.58;73.38
36692;BME280;22678;52.052;4.242;2022-09-12T02:42:53;101613.28;;;17.59;73.48
36692;BME280;22678;52.052;4.242;2022-09-12T02:45:19;101592.31;;;17.47;73.47
36692;BME280;22678;52.052;4.242;2022-09-12T02:47:57;101587.91;;;17.46;73.56
36692;BME280;22678;52.052;4.242;2022-09-12T02:50:24;101601.84;;;17.56;73.49
36692;BME280;22678;52.052;4.242;2022-09-12T02:52:50;101587.81;;;17.49;73.80
36692;BME280;22678;52.052;4.242;2022-09-12T02:55:18;101590.50;;;17.49;73.71
36692;BME280;22678;52.052;4.242;2022-09-12T02:57:43;101573.84;;;17.42;73.84
36692;BME280;22678;52.052;4.242;2022-09-12T03:00:09;101587.88;;;17.47;73.92
36692;BME280;22678;52.052;4.242;2022-09-12T03:05:54;101585.03;;;17.55;73.95
36692;BME280;22678;52.052;4.242;2022-09-12T03:08:37;101588.59;;;17.54;73.97
36692;BME280;22678;52.052;4.242;2022-09-12T03:14:21;101586.81;;;17.55;73.95
36692;BME280;22678;52.052;4.242;2022-09-12T03:19:34;101575.38;;;17.51;74.07
36692;BME280;22678;52.052;4.242;2022-09-12T03:22:16;101581.53;;;17.53;73.99
36692;BME280;22678;52.052;4.242;2022-09-12T03:24:57;101522.13;;;17.18;74.01
36692;BME280;22678;52.052;4.242;2022-09-12T03:27:41;101570.97;;;17.50;74.08
36692;BME280;22678;52.052;4.242;2022-09-12T03:30:08;101576.38;;;17.47;74.02
36692;BME280;22678;52.052;4.242;2022-09-12T03:32:50;101565.81;;;17.44;74.02
36692;BME280;22678;52.052;4.242;2022-09-12T03:35:17;101570.22;;;17.45;74.20
36692;BME280;22678;52.052;4.242;2022-09-12T03:37:43;101557.06;;;17.39;73.86
36692;BME280;22678;52.052;4.242;2022-09-12T03:40:10;101569.38;;;17.43;74.01
36692;BME280;22678;52.052;4.242;2022-09-12T03:42:36;101567.75;;;17.37;74.25
36692;BME280;22678;52.052;4.242;2022-09-12T03:45:01;101573.91;;;17.39;74.21
36692;BME280;22678;52.052;4.242;2022-09-12T03:47:27;101581.84;;;17.41;74.35
36692;BME280;22678;52.052;4.242;2022-09-12T03:49:52;101574.78;;;17.40;74.45
36692;BME280;22678;52.052;4.242;2022-09-12T03:52:18;101575.69;;;17.39;74.42
36692;BME280;22678;52.052;4.242;2022-09-12T03:54:43;101551.22;;;17.26;74.45
36692;BME280;22678;52.052;4.242;2022-09-12T03:57:09;101548.66;;;17.21;74.42
36692;BME280;22678;52.052;4.242;2022-09-12T03:59:34;101554.78;;;17.25;74.72
36692;BME280;22678;52.052;4.242;2022-09-12T04:01:59;101559.16;;;17.27;74.50
36692;BME280;22678;52.052;4.242;2022-09-12T04:04:25;101571.44;;;17.31;74.59
36692;BME280;22678;52.052;4.242;2022-09-12T04:06:50;101553.09;;;17.21;74.82
36692;BME280;22678;52.052;4.242;2022-09-12T04:09:15;101560.88;;;17.28;74.78
36692;BME280;22678;52.052;4.242;2022-09-12T04:11:40;101551.44;;;17.15;74.73
36692;BME280;22678;52.052;4.242;2022-09-12T04:14:06;101557.63;;;17.17;74.99
36692;BME280;22678;52.052;4.242;2022-09-12T04:16:31;101566.34;;;17.22;74.94
36692;BME280;22678;52.052;4.242;2022-09-12T04:18:57;101562.84;;;17.20;75.06
36692;BME280;22678;52.052;4.242;2022-09-12T04:21:22;101552.47;;;17.11;74.96
36692;BME280;22678;52.052;4.242;2022-09-12T04:23:48;101541.09;;;17.04;75.09
36692;BME280;22678;52.052;4.242;2022-09-12T04:26:13;101565.75;;;17.11;75.33
36692;BME280;22678;52.052;4.242;2022-09-12T04:28:40;101522.03;;;16.85;75.26
36692;BME280;22678;52.052;4.242;2022-09-12T04:31:08;101573.72;;;17.11;75.44
36692;BME280;22678;52.052;4.242;2022-09-12T04:33:35;101557.91;;;17.05;75.51
36692;BME280;22678;52.052;4.242;2022-09-12T04:36:09;101565.91;;;17.03;75.54
36692;BME280;22678;52.052;4.242;2022-09-12T04:38:35;101571.22;;;17.03;75.67
36692;BME280;22678;52.052;4.242;2022-09-12T04:41:09;101572.97;;;17.04;75.66
36692;BME280;22678;52.052;4.242;2022-09-12T04:43:34;101564.31;;;16.96;75.83
36692;BME280;22678;52.052;4.242;2022-09-12T04:46:07;101542.44;;;16.83;75.81
36692;BME280;22678;52.052;4.242;2022-09-12T04:48:33;101558.13;;;16.95;76.01
36692;BME280;22678;52.052;4.242;2022-09-12T04:51:12;101555.63;;;16.89;76.08
36692;BME280;22678;52.052;4.242;2022-09-12T04:53:38;101567.88;;;16.95;76.13
36692;BME280;22678;52.052;4.242;2022-09-12T04:56:05;101514.50;;;16.67;76.16
36692;BME280;22678;52.052;4.242;2022-09-12T04:58:32;101563.63;;;16.86;76.27
36692;BME280;22678;52.052;4.242;2022-09-12T05:01:09;101558.31;;;16.86;76.44
36692;BME280;22678;52.052;4.242;2022-09-12T05:03:35;101567.19;;;16.85;76.34
36692;BME280;22678;52.052;4.242;2022-09-12T05:06:04;101562.78;;;16.84;76.64
36692;BME280;22678;52.052;4.242;2022-09-12T05:08:30;101567.19;;;16.85;76.60
36692;BME280;22678;52.052;4.242;2022-09-12T05:11:01;101557.56;;;16.79;76.68
36692;BME280;22678;52.052;4.242;2022-09-12T05:13:27;101554.91;;;16.79;76.61
36692;BME280;22678;52.052;4.242;2022-09-12T05:16:01;101552.28;;;16.78;76.84
36692;BME280;22678;52.052;4.242;2022-09-12T05:18:27;101542.78;;;16.68;76.77
36692;BME280;22678;52.052;4.242;2022-09-12T05:20:53;101546.16;;;16.76;76.90
36692;BME280;22678;52.052;4.242;2022-09-12T05:23:19;101521.63;;;16.64;77.13
36692;BME280;22678;52.052;4.242;2022-09-12T05:25:48;101539.09;;;16.75;77.31
36692;BME280;22678;52.052;4.242;2022-09-12T05:28:14;101515.47;;;16.62;77.14
36692;BME280;22678;52.052;4.242;2022-09-12T05:30:40;101532.16;;;16.68;77.36
36692;BME280;22678;52.052;4.242;2022-09-12T05:33:05;101547.16;;;16.70;77.48
36692;BME280;22678;52.052;4.242;2022-09-12T05:35:30;101514.75;;;16.54;77.58
36692;BME280;22678;52.052;4.242;2022-09-12T05:37:57;101546.41;;;16.63;77.61
36692;BME280;22678;52.052;4.242;2022-09-12T05:40:22;101535.94;;;16.57;77.69
36692;BME280;22678;52.052;4.242;2022-09-12T05:42:48;101554.34;;;16.67;77.88
36692;BME280;22678;52.052;4.242;2022-09-12T05:45:13;101554.41;;;16.62;77.85
36692;BME280;22678;52.052;4.242;2022-09-12T05:47:39;101543.94;;;16.56;77.93
36692;BME280;22678;52.052;4.242;2022-09-12T05:50:04;101561.41;;;16.66;78.20
36692;BME280;22678;52.052;4.242;2022-09-12T05:52:35;101554.38;;;16.63;78.04
36692;BME280;22678;52.052;4.242;2022-09-12T05:55:00;101548.16;;;16.64;78.21
36692;BME280;22678;52.052;4.242;2022-09-12T05:57:26;101535.13;;;16.54;78.29
36692;BME280;22678;52.052;4.242;2022-09-12T05:59:51;101544.63;;;16.66;78.38
36692;BME280;22678;52.052;4.242;2022-09-12T06:02:17;101541.16;;;16.60;78.40
36692;BME280;22678;52.052;4.242;2022-09-12T06:04:42;101542.09;;;16.59;78.52
36692;BME280;22678;52.052;4.242;2022-09-12T06:07:07;101517.44;;;16.53;78.61
36692;BME280;22678;52.052;4.242;2022-09-12T06:09:33;101539.38;;;16.62;78.52
36692;BME280;22678;52.052;4.242;2022-09-12T06:11:58;101546.41;;;16.63;78.51
36692;BME280;22678;52.052;4.242;2022-09-12T06:14:24;101529.72;;;16.58;78.72
36692;BME280;22678;52.052;4.242;2022-09-12T06:16:50;101550.81;;;16.64;78.76
36692;BME280;22678;52.052;4.242;2022-09-12T06:19:20;101540.25;;;16.63;78.70
36692;BME280;22678;52.052;4.242;2022-09-12T06:21:46;101551.56;;;16.71;79.00
36692;BME280;22678;52.052;4.242;2022-09-12T06:24:16;101551.44;;;16.77;78.92
36692;BME280;22678;52.052;4.242;2022-09-12T06:26:42;101545.88;;;16.88;79.12
36692;BME280;22678;52.052;4.242;2022-09-12T06:29:08;101541.09;;;17.04;79.10
36692;BME280;22678;52.052;4.242;2022-09-12T06:31:37;101522.38;;;17.09;78.65
36692;BME280;22678;52.052;4.242;2022-09-12T06:34:05;101543.13;;;17.30;78.62
36692;BME280;22678;52.052;4.242;2022-09-12T06:36:35;101542.78;;;17.43;78.63
36692;BME280;22678;52.052;4.242;2022-09-12T06:39:04;101543.44;;;17.52;78.48
36692;BME280;22678;52.052;4.242;2022-09-12T06:41:30;101537.78;;;17.65;78.37
36692;BME280;22678;52.052;4.242;2022-09-12T06:43:56;101526.91;;;17.74;77.82
36692;BME280;22678;52.052;4.242;2022-09-12T06:46:22;101536.13;;;17.95;77.45
36692;BME280;22678;52.052;4.242;2022-09-12T06:48:48;101548.16;;;18.09;77.19
36692;BME280;22678;52.052;4.242;2022-09-12T06:51:16;101563.84;;;18.18;76.94
36692;BME280;22678;52.052;4.242;2022-09-12T06:53:43;101562.84;;;18.22;76.65
36692;BME280;22678;52.052;4.242;2022-09-12T06:56:11;101560.09;;;18.25;76.29
36692;BME280;22678;52.052;4.242;2022-09-12T06:58:36;101567.19;;;18.26;76.29
36692;BME280;22678;52.052;4.242;2022-09-12T07:01:10;101569.56;;;18.35;76.24
36692;BME280;22678;52.052;4.242;2022-09-12T07:03:36;101555.03;;;18.47;76.16
36692;BME280;22678;52.052;4.242;2022-09-12T07:06:07;101561.41;;;18.71;75.67
36692;BME280;22678;52.052;4.242;2022-09-12T07:08:33;101561.78;;;18.89;75.29
36692;BME280;22678;52.052;4.242;2022-09-12T07:11:18;101560.22;;;19.10;74.96
36692;BME280;22678;52.052;4.242;2022-09-12T07:13:45;101556.34;;;19.20;74.30
36692;BME280;22678;52.052;4.242;2022-09-12T07:16:11;101558.47;;;19.36;73.98
36692;BME280;22678;52.052;4.242;2022-09-12T07:18:38;101540.59;;;19.39;73.74
36692;BME280;22678;52.052;4.242;2022-09-12T07:21:05;101563.03;;;19.59;73.55
36692;BME280;22678;52.052;4.242;2022-09-12T07:23:31;101560.03;;;19.68;72.93
36692;BME280;22678;52.052;4.242;2022-09-12T07:25:58;101560.75;;;19.73;72.80
36692;BME280;22678;52.052;4.242;2022-09-12T07:28:24;101541.69;;;19.59;72.41
36692;BME280;22678;52.052;4.242;2022-09-12T07:30:50;101550.44;;;19.64;72.66
36692;BME280;22678;52.052;4.242;2022-09-12T07:33:19;101539.66;;;19.67;72.33
36692;BME280;22678;52.052;4.242;2022-09-12T07:35:45;101532.13;;;19.78;71.88
36692;BME280;22678;52.052;4.242;2022-09-12T07:38:10;101536.72;;;20.00;71.82
36692;BME280;22678;52.052;4.242;2022-09-12T07:40:35;101539.88;;;20.11;70.99
36692;BME280;22678;52.052;4.242;2022-09-12T07:43:00;101553.47;;;20.29;70.66
36692;BME280;22678;52.052;4.242;2022-09-12T07:45:26;101534.72;;;20.30;70.58
36692;BME280;22678;52.052;4.242;2022-09-12T07:47:53;101540.22;;;20.50;70.02
36692;BME280;22678;52.052;4.242;2022-09-12T07:50:18;101537.97;;;20.61;69.92
36692;BME280;22678;52.052;4.242;2022-09-12T07:52:44;101557.44;;;20.88;69.61
36692;BME280;22678;52.052;4.242;2022-09-12T07:55:09;101556.19;;;20.97;68.31
36692;BME280;22678;52.052;4.242;2022-09-12T07:57:34;101546.16;;;21.02;67.64
36692;BME280;22678;52.052;4.242;2022-09-12T08:00:00;101551.97;;;21.13;67.08
36692;BME280;22678;52.052;4.242;2022-09-12T08:02:25;101554.25;;;21.23;66.36
36692;BME280;22678;52.052;4.242;2022-09-12T08:04:50;101556.28;;;21.38;65.92
36692;BME280;22678;52.052;4.242;2022-09-12T08:07:16;101535.88;;;21.35;65.23
36692;BME280;22678;52.052;4.242;2022-09-12T08:09:43;101545.44;;;21.41;64.73
36692;BME280;22678;52.052;4.242;2022-09-12T08:12:09;101559.50;;;21.46;64.44
36692;BME280;22678;52.052;4.242;2022-09-12T08:14:34;101547.19;;;21.42;64.30
36692;BME280;22678;52.052;4.242;2022-09-12T08:16:59;101533.69;;;21.45;64.19
36692;BME280;22678;52.052;4.242;2022-09-12T08:19:25;101553.78;;;21.56;63.69
36692;BME280;22678;52.052;4.242;2022-09-12T08:21:50;101558.50;;;21.49;63.73
36692;BME280;22678;52.052;4.242;2022-09-12T08:24:15;101551.91;;;21.58;63.61
36692;BME280;22678;52.052;4.242;2022-09-12T08:26:41;101547.09;;;21.66;63.30
36692;BME280;22678;52.052;4.242;2022-09-12T08:29:07;101554.31;;;21.84;63.11
36692;BME280;22678;52.052;4.242;2022-09-12T08:31:32;101560.84;;;21.98;62.31
36692;BME280;22678;52.052;4.242;2022-09-12T08:34:02;101548.16;;;22.03;62.05
36692;BME280;22678;52.052;4.242;2022-09-12T08:36:27;101546.72;;;22.15;61.02
36692;BME280;22678;52.052;4.242;2022-09-12T08:38:56;101556.94;;;22.26;60.82
36692;BME280;22678;52.052;4.242;2022-09-12T08:46:38;101551.00;;;22.59;59.73
36692;BME280;22678;52.052;4.242;2022-09-12T08:49:10;101551.41;;;22.68;59.17
36692;BME280;22678;52.052;4.242;2022-09-12T08:51:38;101546.31;;;22.81;59.14
36692;BME280;22678;52.052;4.242;2022-09-12T08:54:18;101552.91;;;22.93;58.87
36692;BME280;22678;52.052;4.242;2022-09-12T08:56:45;101545.56;;;22.97;57.76
36692;BME280;22678;52.052;4.242;2022-09-12T08:59:11;101555.78;;;23.07;57.95
36692;BME280;22678;52.052;4.242;2022-09-12T09:01:42;101550.84;;;23.17;57.45
36692;BME280;22678;52.052;4.242;2022-09-12T09:09:20;101543.78;;;23.34;56.69
36692;BME280;22678;52.052;4.242;2022-09-12T09:12:05;101548.00;;;23.38;55.94
36692;BME280;22678;52.052;4.242;2022-09-12T09:17:26;101531.66;;;23.60;55.74
36692;BME280;22678;52.052;4.242;2022-09-12T09:20:04;101526.69;;;23.70;55.23
36692;BME280;22678;52.052;4.242;2022-09-12T09:22:37;101524.00;;;23.70;54.59
36692;BME280;22678;52.052;4.242;2022-09-12T09:30:56;101494.59;;;23.84;53.88
36692;BME280;22678;52.052;4.242;2022-09-12T09:33:25;101501.41;;;23.91;53.03
36692;BME280;22678;52.052;4.242;2022-09-12T09:36:01;101497.94;;;23.89;52.75
36692;BME280;22678;52.052;4.242;2022-09-12T09:39:04;101510.13;;;24.12;52.91
36692;BME280;22678;52.052;4.242;2022-09-12T09:44:16;101496.34;;;24.19;51.82
36692;BME280;22678;52.052;4.242;2022-09-12T09:46:43;101503.38;;;24.21;51.91
36692;BME280;22678;52.052;4.242;2022-09-12T09:49:11;101500.09;;;24.16;51.39
36692;BME280;22678;52.052;4.242;2022-09-12T09:51:39;101505.25;;;24.03;51.56
36692;BME280;22678;52.052;4.242;2022-09-12T09:54:16;101499.88;;;24.03;51.88
36692;BME280;22678;52.052;4.242;2022-09-12T09:56:44;101492.38;;;23.92;51.46
36692;BME280;22678;52.052;4.242;2022-09-12T09:59:28;101500.41;;;24.10;52.17
36692;BME280;22678;52.052;4.242;2022-09-12T10:04:24;101478.94;;;24.42;51.43
36692;BME280;22678;52.052;4.242;2022-09-12T10:06:55;101472.16;;;24.51;50.48
36692;BME280;22678;52.052;4.242;2022-09-12T10:09:24;101474.19;;;24.63;50.22
36692;BME280;22678;52.052;4.242;2022-09-12T10:11:50;101484.84;;;24.80;49.79
36692;BME280;22678;52.052;4.242;2022-09-12T10:14:30;101482.84;;;24.84;49.39
36692;BME280;22678;52.052;4.242;2022-09-12T10:16:56;101472.84;;;24.86;48.92
36692;BME280;22678;52.052;4.242;2022-09-12T10:19:33;101473.38;;;24.93;48.55
36692;BME280;22678;52.052;4.242;2022-09-12T10:21:59;101471.25;;;24.98;48.61
36692;BME280;22678;52.052;4.242;2022-09-12T10:24:26;101484.59;;;25.15;48.33
36692;BME280;22678;52.052;4.242;2022-09-12T10:26:55;101479.03;;;25.18;47.75
36692;BME280;22678;52.052;4.242;2022-09-12T10:29:24;101463.91;;;25.16;47.41
36692;BME280;22678;52.052;4.242;2022-09-12T10:31:57;101465.97;;;25.27;47.24
36692;BME280;22678;52.052;4.242;2022-09-12T10:37:04;101478.75;;;25.53;46.79
36692;BME280;22678;52.052;4.242;2022-09-12T10:39:30;101462.28;;;25.44;46.45
36692;BME280;22678;52.052;4.242;2022-09-12T10:41:56;101476.34;;;25.49;46.32
36692;BME280;22678;52.052;4.242;2022-09-12T10:44:25;101491.72;;;25.61;46.49
36692;BME280;22678;52.052;4.242;2022-09-12T10:46:51;101453.38;;;25.58;46.41
36692;BME280;22678;52.052;4.242;2022-09-12T10:49:23;101477.44;;;25.75;45.49
36692;BME280;22678;52.052;4.242;2022-09-12T10:51:50;101483.88;;;25.73;45.57
36692;BME280;22678;52.052;4.242;2022-09-12T10:54:18;101482.53;;;25.80;45.68
36692;BME280;22678;52.052;4.242;2022-09-12T10:56:47;101490.22;;;25.86;45.61
36692;BME280;22678;52.052;4.242;2022-09-12T11:07:28;101468.19;;;26.08;45.11
36692;BME280;22678;52.052;4.242;2022-09-12T11:10:17;101466.75;;;26.17;45.37
36692;BME280;22678;52.052;4.242;2022-09-12T11:15:29;101465.19;;;26.27;44.75
36692;BME280;22678;52.052;4.242;2022-09-12T11:18:14;101453.47;;;26.14;44.41
36692;BME280;22678;52.052;4.242;2022-09-12T11:23:38;101445.91;;;26.33;45.17
36692;BME280;22678;52.052;4.242;2022-09-12T11:26:26;101461.44;;;26.57;44.80
36692;BME280;22678;52.052;4.242;2022-09-12T11:35:10;101431.22;;;26.79;44.22
36692;BME280;22678;52.052;4.242;2022-09-12T11:37:25;101449.94;;;26.95;44.17
36692;BME280;22678;52.052;4.242;2022-09-12T11:40:43;101440.34;;;27.04;43.82
36692;BME280;22678;52.052;4.242;2022-09-12T11:43:33;101428.91;;;27.00;43.26
36692;BME280;22678;52.052;4.242;2022-09-12T11:46:08;101439.06;;;27.09;42.64
36692;BME280;22678;52.052;4.242;2022-09-12T11:51:18;101439.94;;;27.23;42.57
36692;BME280;22678;52.052;4.242;2022-09-12T11:53:52;101441.06;;;27.33;42.76
36692;BME280;22678;52.052;4.242;2022-09-12T11:56:21;101413.59;;;27.26;42.83
36692;BME280;22678;52.052;4.242;2022-09-12T11:58:52;101425.97;;;27.43;42.93
36692;BME280;22678;52.052;4.242;2022-09-12T12:01:25;101410.72;;;27.42;42.70
36692;BME280;22678;52.052;4.242;2022-09-12T12:03:51;101414.50;;;27.53;42.11
36692;BME280;22678;52.052;4.242;2022-09-12T12:06:27;101423.16;;;27.58;41.60
36692;BME280;22678;52.052;4.242;2022-09-12T12:08:54;101401.97;;;27.52;41.53
36692;BME280;22678;52.052;4.242;2022-09-12T12:11:33;101422.69;;;27.51;41.31
36692;BME280;22678;52.052;4.242;2022-09-12T12:14:11;101412.00;;;27.50;41.58
36692;BME280;22678;52.052;4.242;2022-09-12T12:16:39;101403.06;;;27.36;41.42
36692;BME280;22678;52.052;4.242;2022-09-12T12:29:09;101406.09;;;27.44;41.99
36692;BME280;22678;52.052;4.242;2022-09-12T12:34:44;101408.88;;;27.69;41.48
36692;BME280;22678;52.052;4.242;2022-09-12T12:45:03;101378.66;;;27.88;41.64
36692;BME280;22678;52.052;4.242;2022-09-12T12:47:49;101379.28;;;28.04;41.53
36692;BME280;22678;52.052;4.242;2022-09-12T12:55:23;101382.53;;;28.09;40.84
36692;BME280;22678;52.052;4.242;2022-09-12T12:57:57;101377.88;;;28.11;40.96
36692;BME280;22678;52.052;4.242;2022-09-12T13:00:24;101380.00;;;28.19;40.64
36692;BME280;22678;52.052;4.242;2022-09-12T13:05:27;101366.66;;;28.05;40.89
36692;BME280;22678;52.052;4.242;2022-09-12T13:07:57;101352.38;;;28.03;40.42
36692;BME280;22678;52.052;4.242;2022-09-12T13:10:27;101364.59;;;28.08;40.08
36692;BME280;22678;52.052;4.242;2022-09-12T13:12:55;101358.44;;;28.06;39.42
36692;BME280;22678;52.052;4.242;2022-09-12T13:15:46;101361.41;;;28.14;39.20
36692;BME280;22678;52.052;4.242;2022-09-12T13:18:30;101360.13;;;28.07;39.02
36692;BME280;22678;52.052;4.242;2022-09-12T13:21:08;101345.88;;;28.05;38.96
36692;BME280;22678;52.052;4.242;2022-09-12T13:23:34;101304.13;;;27.72;38.97
36692;BME280;22678;52.052;4.242;2022-09-12T13:26:01;101337.66;;;27.94;39.40
36692;BME280;22678;52.052;4.242;2022-09-12T13:28:28;101336.28;;;28.01;39.67
36692;BME280;22678;52.052;4.242;2022-09-12T13:31:11;101329.91;;;28.02;38.84
36692;BME280;22678;52.052;4.242;2022-09-12T13:33:54;101329.44;;;27.95;39.31
36692;BME280;22678;52.052;4.242;2022-09-12T13:36:36;101330.13;;;27.99;39.19
36692;BME280;22678;52.052;4.242;2022-09-12T13:44:20;101315.81;;;28.10;39.28
36692;BME280;22678;52.052;4.242;2022-09-12T13:46:46;101315.22;;;28.18;39.06
36692;BME280;22678;52.052;4.242;2022-09-12T13:49:20;101322.19;;;28.33;38.38
36692;BME280;22678;52.052;4.242;2022-09-12T13:51:56;101319.94;;;28.27;37.55
36692;BME280;22678;52.052;4.242;2022-09-12T13:54:22;101313.63;;;28.15;38.39
36692;BME280;22678;52.052;4.242;2022-09-12T13:56:48;101305.72;;;28.12;39.06
36692;BME280;22678;52.052;4.242;2022-09-12T13:59:14;101320.69;;;28.29;39.39
36692;BME280;22678;52.052;4.242;2022-09-12T14:01:42;101320.84;;;28.39;39.38
36692;BME280;22678;52.052;4.242;2022-09-12T14:07:08;101314.50;;;28.51;39.15
36692;BME280;22678;52.052;4.242;2022-09-12T14:09:42;101316.28;;;28.39;38.00
36692;BME280;22678;52.052;4.242;2022-09-12T14:12:30;101326.31;;;28.26;38.07
36692;BME280;22678;52.052;4.242;2022-09-12T14:14:59;101314.97;;;28.21;37.45
36692;BME280;22678;52.052;4.242;2022-09-12T14:17:32;101324.72;;;28.23;37.97
36692;BME280;22678;52.052;4.242;2022-09-12T14:19:59;101315.63;;;28.24;37.75
36692;BME280;22678;52.052;4.242;2022-09-12T14:22:28;101271.50;;;28.00;38.35
36692;BME280;22678;52.052;4.242;2022-09-12T14:24:55;101316.38;;;28.26;37.41
36692;BME280;22678;52.052;4.242;2022-09-12T14:27:24;101304.03;;;28.22;37.49
36692;BME280;22678;52.052;4.242;2022-09-12T14:30:04;101307.16;;;28.29;37.88
36692;BME280;22678;52.052;4.242;2022-09-12T14:32:34;101294.72;;;28.26;37.83
36692;BME280;22678;52.052;4.242;2022-09-12T14:35:18;101279.28;;;28.28;38.38
36692;BME280;22678;52.052;4.242;2022-09-12T14:37:48;101300.25;;;28.49;38.14
36692;BME280;22678;52.052;4.242;2022-09-12T14:40:17;101304.94;;;28.58;38.18
36692;BME280;22678;52.052;4.242;2022-09-12T14:42:43;101296.69;;;28.60;37.64
36692;BME280;22678;52.052;4.242;2022-09-12T14:45:17;101285.59;;;28.52;37.34
36692;BME280;22678;52.052;4.242;2022-09-12T14:47:47;101293.81;;;28.50;37.55
36692;BME280;22678;52.052;4.242;2022-09-12T14:50:21;101289.00;;;28.42;37.64
36692;BME280;22678;52.052;4.242;2022-09-12T14:53:02;101292.06;;;28.38;37.73
36692;BME280;22678;52.052;4.242;2022-09-12T14:55:29;101284.81;;;28.38;38.46
36692;BME280;22678;52.052;4.242;2022-09-12T15:01:02;101289.97;;;28.41;38.32
36692;BME280;22678;52.052;4.242;2022-09-12T15:03:49;101289.13;;;28.41;38.60